Time;durP1;ratioP1;P1;durP2;ratioP2;P2;SDS_P1;SDS_P2;PMS_P1;PMS_P2;Temp;Humidity;BMP_temperature;BMP_pressure;BME280_temperature;BME280_humidity;BME280_pressure;Samples;Min_cycle;Max_cycle;Signal;HPM_P1;HPM_P2
2022/06/06 00:00:40;;;;;;;;;10.00;10.00;;;;;;;;5099175;27;45351;-76
2022/06/06 00:03:06;;;;;;;;;10.00;9.00;;;;;;;;5071860;27;45422;-76
2022/06/06 00:05:31;;;;;;;;;9.00;8.00;;;;;;;;5102023;27;45448;-76
2022/06/06 00:07:58;;;;;;;;;9.67;9.33;;;;;;;;5090326;27;45564;-76
2022/06/06 00:10:23;;;;;;;;;9.00;9.00;;;;;;;;5090427;27;45425;-75
2022/06/06 00:12:48;;;;;;;;;8.33;8.33;;;;;;;;5091548;27;45300;-76
2022/06/06 00:15:14;;;;;;;;;7.33;7.33;;;;;;;;5096829;27;45261;-76
2022/06/06 00:17:39;;;;;;;;;10.00;8.00;;;;;;;;5070416;27;47018;-76
2022/06/06 00:20:05;;;;;;;;;8.33;7.00;;;;;;;;5092189;27;45303;-76
2022/06/06 00:22:30;;;;;;;;;12.33;8.00;;;;;;;;5093044;27;45294;-76
2022/06/06 00:24:55;;;;;;;;;12.00;8.67;;;;;;;;5079595;27;46836;-75
2022/06/06 00:27:20;;;;;;;;;9.33;9.33;;;;;;;;5076436;27;47016;-76
2022/06/06 00:29:46;;;;;;;;;10.33;8.00;;;;;;;;5099785;27;45223;-76
2022/06/06 00:34:55;;;;;;;;;8.00;6.67;;;;;;;;5092546;27;45549;-76
2022/06/06 00:37:22;;;;;;;;;8.00;7.00;;;;;;;;5055989;27;48220;-76
2022/06/06 00:39:48;;;;;;;;;8.00;8.00;;;;;;;;5096362;27;45302;-76
2022/06/06 00:42:17;;;;;;;;;7.67;7.67;;;;;;;;5073390;27;45307;-76
2022/06/06 00:44:43;;;;;;;;;7.33;7.33;;;;;;;;5101871;27;45457;-76
2022/06/06 00:47:27;;;;;;;;;9.00;8.00;;;;;;;;5089742;27;46139;-76
2022/06/06 00:49:55;;;;;;;;;9.33;7.00;;;;;;;;5095986;27;45423;-75
2022/06/06 00:52:24;;;;;;;;;7.67;7.00;;;;;;;;5082121;27;45400;-75
2022/06/06 00:54:51;;;;;;;;;7.33;7.33;;;;;;;;5097499;27;45343;-75
2022/06/06 00:57:20;;;;;;;;;8.33;8.33;;;;;;;;5086072;27;45438;-76
2022/06/06 00:59:46;;;;;;;;;8.00;8.00;;;;;;;;5077855;27;46103;-75
2022/06/06 01:02:11;;;;;;;;;8.00;7.67;;;;;;;;5084090;27;45260;-76
2022/06/06 01:04:39;;;;;;;;;6.00;6.00;;;;;;;;5092811;27;45235;-75
2022/06/06 01:07:05;;;;;;;;;8.00;8.00;;;;;;;;5087972;27;45235;-76
2022/06/06 01:09:30;;;;;;;;;8.33;8.00;;;;;;;;5097801;27;45442;-76
2022/06/06 01:12:00;;;;;;;;;11.00;10.67;;;;;;;;5089328;27;45451;-76
2022/06/06 01:14:28;;;;;;;;;7.67;7.67;;;;;;;;5076158;27;46072;-75
2022/06/06 01:17:12;;;;;;;;;12.67;10.00;;;;;;;;5073158;27;46944;-76
2022/06/06 01:20:02;;;;;;;;;7.33;7.33;;;;;;;;5092507;27;45292;-76
2022/06/06 01:22:45;;;;;;;;;10.00;10.00;;;;;;;;5092690;27;45242;-75
2022/06/06 01:25:10;;;;;;;;;10.00;8.00;;;;;;;;5099278;27;45610;-74
2022/06/06 01:27:54;;;;;;;;;8.00;7.00;;;;;;;;5070908;27;46048;-74
2022/06/06 01:30:25;;;;;;;;;9.00;9.00;;;;;;;;5062950;27;45182;-74
2022/06/06 01:32:54;;;;;;;;;9.00;9.00;;;;;;;;5089699;27;45443;-75
2022/06/06 01:35:28;;;;;;;;;10.67;10.67;;;;;;;;5098221;27;44840;-74
2022/06/06 01:37:53;;;;;;;;;12.00;12.00;;;;;;;;5072327;27;47628;-75
2022/06/06 01:40:19;;;;;;;;;10.33;10.33;;;;;;;;5100250;27;45306;-74
2022/06/06 01:43:08;;;;;;;;;13.00;11.67;;;;;;;;5073282;27;45254;-74
2022/06/06 01:45:41;;;;;;;;;13.00;10.00;;;;;;;;5093827;27;46108;-74
2022/06/06 01:48:11;;;;;;;;;13.00;12.00;;;;;;;;5084158;27;45439;-73
2022/06/06 01:50:37;;;;;;;;;10.00;10.00;;;;;;;;5096355;27;45285;-76
2022/06/06 01:53:05;;;;;;;;;11.00;9.00;;;;;;;;5082624;27;45358;-75
2022/06/06 01:55:31;;;;;;;;;10.00;10.00;;;;;;;;5090987;27;45696;-75
2022/06/06 01:58:01;;;;;;;;;12.33;11.00;;;;;;;;5062846;27;46132;-76
2022/06/06 02:00:27;;;;;;;;;8.33;8.33;;;;;;;;5090802;27;45310;-76
2022/06/06 02:02:52;;;;;;;;;11.00;11.00;;;;;;;;5087553;27;45288;-75
2022/06/06 02:05:17;;;;;;;;;13.00;9.00;;;;;;;;5082462;27;45926;-76
2022/06/06 02:07:43;;;;;;;;;11.00;8.67;;;;;;;;5072810;27;47508;-75
2022/06/06 02:10:10;;;;;;;;;12.67;9.00;;;;;;;;5076814;27;45372;-75
2022/06/06 02:12:40;;;;;;;;;8.00;6.00;;;;;;;;5089184;27;45474;-75
2022/06/06 02:15:06;;;;;;;;;10.67;9.00;;;;;;;;5071703;27;45945;-74
2022/06/06 02:17:32;;;;;;;;;12.00;10.33;;;;;;;;5089956;27;47467;-76
2022/06/06 02:19:57;;;;;;;;;10.33;10.33;;;;;;;;5074894;27;45291;-75
2022/06/06 02:22:22;;;;;;;;;8.00;8.00;;;;;;;;5090970;27;45327;-76
2022/06/06 02:24:48;;;;;;;;;8.33;8.00;;;;;;;;5073357;27;47244;-75
2022/06/06 02:27:13;;;;;;;;;11.00;9.00;;;;;;;;5089981;27;45945;-76
2022/06/06 02:29:39;;;;;;;;;10.00;8.67;;;;;;;;5077185;27;45919;-76
2022/06/06 02:32:05;;;;;;;;;9.00;9.00;;;;;;;;5088516;27;45292;-75
2022/06/06 02:34:30;;;;;;;;;14.00;10.67;;;;;;;;5093475;27;45396;-75
2022/06/06 02:36:55;;;;;;;;;13.00;11.00;;;;;;;;5070119;27;47543;-75
2022/06/06 02:39:20;;;;;;;;;16.33;13.33;;;;;;;;5087499;27;45353;-76
2022/06/06 02:41:46;;;;;;;;;19.67;17.67;;;;;;;;5094879;27;45370;-76
2022/06/06 02:44:11;;;;;;;;;21.75;19.25;;;;;;;;5067353;27;46370;-75
2022/06/06 02:46:36;;;;;;;;;28.00;24.25;;;;;;;;5095695;27;45414;-75
2022/06/06 02:49:01;;;;;;;;;26.33;21.00;;;;;;;;5095421;27;45350;-75
2022/06/06 02:51:26;;;;;;;;;26.75;23.00;;;;;;;;5079866;27;45302;-75
2022/06/06 02:53:52;;;;;;;;;26.25;22.50;;;;;;;;5079113;27;45872;-75
2022/06/06 02:56:17;;;;;;;;;33.75;27.00;;;;;;;;5076452;27;47130;-75
2022/06/06 02:58:42;;;;;;;;;28.00;26.75;;;;;;;;5076688;27;45355;-75
2022/06/06 03:01:08;;;;;;;;;32.25;28.50;;;;;;;;5094241;27;45316;-75
2022/06/06 03:03:34;;;;;;;;;28.25;24.00;;;;;;;;5096316;27;45267;-75
2022/06/06 03:06:12;;;;;;;;;23.00;21.25;;;;;;;;5095520;27;45455;-76
2022/06/06 03:08:45;;;;;;;;;23.00;22.00;;;;;;;;5094804;27;45419;-75
2022/06/06 03:11:17;;;;;;;;;24.75;18.75;;;;;;;;5074346;27;45340;-75
2022/06/06 03:13:54;;;;;;;;;22.67;20.67;;;;;;;;5096377;27;45534;-75
2022/06/06 03:22:00;;;;;;;;;14.50;14.00;;;;;;;;5093261;27;45545;-75
2022/06/06 03:24:34;;;;;;;;;13.33;11.33;;;;;;;;5100914;27;45455;-76
2022/06/06 03:27:29;;;;;;;;;15.00;13.00;;;;;;;;5073013;27;47175;-76
2022/06/06 03:29:54;;;;;;;;;13.33;12.33;;;;;;;;5074339;27;45454;-81
2022/06/06 03:32:29;;;;;;;;;13.00;11.33;;;;;;;;5069811;27;46004;-77
2022/06/06 03:35:13;;;;;;;;;10.67;10.00;;;;;;;;5094770;27;45441;-79
2022/06/06 03:37:56;;;;;;;;;19.33;18.33;;;;;;;;5090629;27;46447;-78
2022/06/06 03:40:33;;;;;;;;;13.67;11.33;;;;;;;;5098272;27;45357;-77
2022/06/06 03:43:07;;;;;;;;;9.67;9.00;;;;;;;;5091814;27;45538;-78
2022/06/06 03:45:35;;;;;;;;;10.67;10.67;;;;;;;;5075121;27;47060;-78
2022/06/06 03:48:03;;;;;;;;;9.33;8.00;;;;;;;;5090922;27;45399;-76
2022/06/06 03:50:44;;;;;;;;;6.33;6.33;;;;;;;;5098029;27;45380;-78
2022/06/06 03:53:17;;;;;;;;;7.00;7.00;;;;;;;;5091376;27;45538;-75
2022/06/06 03:55:42;;;;;;;;;8.00;7.00;;;;;;;;5090483;27;45529;-77
2022/06/06 03:58:10;;;;;;;;;7.00;7.00;;;;;;;;5089054;27;46250;-76
2022/06/06 04:00:38;;;;;;;;;5.67;5.00;;;;;;;;5095022;27;45506;-77
2022/06/06 04:03:04;;;;;;;;;7.00;7.00;;;;;;;;5073237;27;45252;-77
2022/06/06 04:05:30;;;;;;;;;8.00;6.67;;;;;;;;5084542;27;46128;-78
2022/06/06 04:07:56;;;;;;;;;6.33;5.00;;;;;;;;5091015;27;45446;-79
2022/06/06 04:10:24;;;;;;;;;6.00;6.00;;;;;;;;5097544;27;45314;-78
2022/06/06 04:12:55;;;;;;;;;7.67;6.67;;;;;;;;5070639;27;45417;-78
2022/06/06 04:15:27;;;;;;;;;9.00;7.67;;;;;;;;5088137;27;45548;-78
2022/06/06 04:17:56;;;;;;;;;7.00;5.33;;;;;;;;5074906;27;46999;-79
2022/06/06 04:20:21;;;;;;;;;6.67;6.67;;;;;;;;5097222;27;45417;-79
2022/06/06 04:22:53;;;;;;;;;7.67;6.67;;;;;;;;5086163;27;45245;-78
2022/06/06 04:25:30;;;;;;;;;7.00;6.00;;;;;;;;5062741;27;46161;-79
2022/06/06 04:28:01;;;;;;;;;8.00;7.33;;;;;;;;5092781;27;45431;-79
2022/06/06 04:30:27;;;;;;;;;9.00;7.67;;;;;;;;5096496;27;45228;-79
2022/06/06 04:33:11;;;;;;;;;5.00;5.00;;;;;;;;5085965;27;45521;-78
2022/06/06 04:35:42;;;;;;;;;5.33;5.33;;;;;;;;5092901;27;45679;-78
2022/06/06 04:38:16;;;;;;;;;7.00;6.00;;;;;;;;5072627;27;46122;-78
2022/06/06 04:41:01;;;;;;;;;7.33;7.33;;;;;;;;5101472;27;45423;-78
2022/06/06 04:43:39;;;;;;;;;6.67;5.33;;;;;;;;5066106;27;45573;-79
2022/06/06 04:46:31;;;;;;;;;4.67;4.33;;;;;;;;5094402;27;45491;-78
2022/06/06 04:48:56;;;;;;;;;6.00;6.00;;;;;;;;5060539;27;45534;-78
2022/06/06 04:51:22;;;;;;;;;4.67;4.33;;;;;;;;5064368;27;45232;-78
2022/06/06 04:53:49;;;;;;;;;5.67;4.67;;;;;;;;5092883;27;45463;-79
2022/06/06 04:56:15;;;;;;;;;5.00;4.00;;;;;;;;5077252;27;46429;-78
2022/06/06 04:58:42;;;;;;;;;5.67;4.00;;;;;;;;5091158;27;45162;-79
2022/06/06 05:01:07;;;;;;;;;4.33;4.00;;;;;;;;5092863;27;45245;-78
2022/06/06 05:03:33;;;;;;;;;3.00;3.00;;;;;;;;5069113;27;45367;-78
2022/06/06 05:06:13;;;;;;;;;5.33;4.00;;;;;;;;5076953;27;46270;-79
2022/06/06 05:08:39;;;;;;;;;6.00;4.00;;;;;;;;5058052;28;47287;-80
2022/06/06 05:11:07;;;;;;;;;2.75;2.75;;;;;;;;5059469;27;45413;-78
2022/06/06 05:13:46;;;;;;;;;5.00;3.67;;;;;;;;5093787;27;45449;-81
2022/06/06 05:16:23;;;;;;;;;4.00;3.00;;;;;;;;5091285;27;45307;-84
2022/06/06 05:18:48;;;;;;;;;3.00;3.00;;;;;;;;5091636;27;45508;-79
2022/06/06 05:21:32;;;;;;;;;4.00;4.00;;;;;;;;5076911;27;47958;-76
2022/06/06 05:24:36;;;;;;;;;3.00;3.00;;;;;;;;5060159;27;45528;-78
2022/06/06 05:27:25;;;;;;;;;2.00;2.00;;;;;;;;5014050;28;45987;-77
2022/06/06 05:30:04;;;;;;;;;3.67;3.00;;;;;;;;4999712;28;47403;-78
2022/06/06 05:32:49;;;;;;;;;3.67;3.67;;;;;;;;5048588;27;45261;-76
2022/06/06 05:35:14;;;;;;;;;2.00;2.00;;;;;;;;5096114;27;45249;-78
2022/06/06 05:37:58;;;;;;;;;2.67;2.00;;;;;;;;5069445;27;45353;-81
2022/06/06 05:40:28;;;;;;;;;2.00;2.00;;;;;;;;5092330;27;45516;-77
2022/06/06 05:43:06;;;;;;;;;2.67;2.67;;;;;;;;5092573;27;45449;-79
2022/06/06 05:45:31;;;;;;;;;1.00;1.00;;;;;;;;5092176;27;45277;-79
2022/06/06 05:48:05;;;;;;;;;2.00;2.00;;;;;;;;5072120;27;45442;-78
2022/06/06 05:50:58;;;;;;;;;3.00;3.00;;;;;;;;5093664;27;46330;-81
2022/06/06 05:53:26;;;;;;;;;3.00;2.00;;;;;;;;5059212;27;45482;-76
2022/06/06 05:56:10;;;;;;;;;3.33;1.33;;;;;;;;5073855;27;45313;-80
2022/06/06 05:58:51;;;;;;;;;2.00;2.00;;;;;;;;5087397;27;45360;-79
2022/06/06 06:01:35;;;;;;;;;2.67;2.67;;;;;;;;5092875;27;45420;-79
2022/06/06 06:04:00;;;;;;;;;2.00;2.00;;;;;;;;5094337;27;45419;-82
2022/06/06 06:06:33;;;;;;;;;2.00;2.00;;;;;;;;5094489;27;46059;-80
2022/06/06 06:09:21;;;;;;;;;1.00;1.00;;;;;;;;5078083;27;46250;-80
2022/06/06 06:11:56;;;;;;;;;1.00;1.00;;;;;;;;5075735;27;46748;-78
2022/06/06 06:14:40;;;;;;;;;2.00;0.00;;;;;;;;5076802;27;45538;-79
2022/06/06 06:17:06;;;;;;;;;2.00;2.00;;;;;;;;5078083;27;45406;-81
2022/06/06 06:19:39;;;;;;;;;4.00;2.00;;;;;;;;5078015;27;45446;-79
2022/06/06 06:22:05;;;;;;;;;5.00;3.00;;;;;;;;5077761;27;46527;-77
2022/06/06 06:24:33;;;;;;;;;2.00;2.00;;;;;;;;5078410;27;45644;-80
2022/06/06 06:27:01;;;;;;;;;5.00;2.33;;;;;;;;5076146;27;45415;-78
2022/06/06 06:29:26;;;;;;;;;1.33;1.33;;;;;;;;5059830;28;45588;-80
2022/06/06 06:31:57;;;;;;;;;3.00;3.00;;;;;;;;5071742;27;45569;-80
2022/06/06 06:34:35;;;;;;;;;1.00;1.00;;;;;;;;5061502;28;46340;-79
2022/06/06 06:37:06;;;;;;;;;3.00;1.67;;;;;;;;5071949;27;45607;-80
2022/06/06 06:39:50;;;;;;;;;2.00;1.00;;;;;;;;5075052;27;45678;-79
2022/06/06 06:42:15;;;;;;;;;2.00;2.00;;;;;;;;5053332;28;47202;-80
2022/06/06 06:44:45;;;;;;;;;3.33;2.00;;;;;;;;5081512;28;45509;-79
2022/06/06 06:47:14;;;;;;;;;1.00;1.00;;;;;;;;5076399;27;45451;-80
2022/06/06 06:49:39;;;;;;;;;3.00;3.00;;;;;;;;5078590;27;45354;-80
2022/06/06 06:52:13;;;;;;;;;3.00;2.00;;;;;;;;5075595;27;46528;-80
2022/06/06 06:54:50;;;;;;;;;2.00;2.00;;;;;;;;5088275;27;45395;-79
2022/06/06 06:57:33;;;;;;;;;2.00;2.00;;;;;;;;5075112;27;45348;-79
2022/06/06 07:00:13;;;;;;;;;3.00;3.00;;;;;;;;5080332;27;45381;-79
2022/06/06 07:08:43;;;;;;;;;2.00;2.00;;;;;;;;5079740;27;45394;-80
2022/06/06 07:11:18;;;;;;;;;2.00;2.00;;;;;;;;5066482;27;46328;-77
2022/06/06 07:13:46;;;;;;;;;1.00;1.00;;;;;;;;5078120;27;45316;-78
2022/06/06 07:16:26;;;;;;;;;0.00;0.00;;;;;;;;5078746;28;45343;-78
2022/06/06 07:18:55;;;;;;;;;0.00;0.00;;;;;;;;5077082;27;45458;-78
2022/06/06 07:21:21;;;;;;;;;0.67;0.67;;;;;;;;5057385;28;45444;-78
2022/06/06 07:23:48;;;;;;;;;2.00;1.00;;;;;;;;5081691;27;45313;-77
2022/06/06 07:26:13;;;;;;;;;1.00;1.00;;;;;;;;5067690;27;45975;-78
2022/06/06 07:28:38;;;;;;;;;1.00;1.00;;;;;;;;5058503;28;45374;-77
2022/06/06 07:31:10;;;;;;;;;0.67;0.67;;;;;;;;5075258;27;46154;-78
2022/06/06 07:33:41;;;;;;;;;3.00;2.00;;;;;;;;5077195;27;45425;-77
2022/06/06 07:36:23;;;;;;;;;0.67;0.67;;;;;;;;5078263;27;45388;-77
2022/06/06 07:38:58;;;;;;;;;1.00;1.00;;;;;;;;5075960;27;45364;-77
2022/06/06 07:41:42;;;;;;;;;2.00;1.00;;;;;;;;5076307;27;45595;-77
2022/06/06 07:44:07;;;;;;;;;2.33;2.33;;;;;;;;5085286;27;45424;-78
2022/06/06 07:46:38;;;;;;;;;2.00;2.00;;;;;;;;5076517;27;45288;-79
2022/06/06 07:49:06;;;;;;;;;2.33;1.00;;;;;;;;5080295;27;45225;-79
2022/06/06 07:51:31;;;;;;;;;1.00;1.00;;;;;;;;5086449;27;45451;-78
2022/06/06 07:54:09;;;;;;;;;0.00;0.00;;;;;;;;5094616;27;46280;-81
2022/06/06 07:56:54;;;;;;;;;1.00;1.00;;;;;;;;5086923;27;45543;-81
2022/06/06 07:59:22;;;;;;;;;0.67;0.67;;;;;;;;5061031;27;45496;-80
2022/06/06 08:01:57;;;;;;;;;1.00;1.00;;;;;;;;5094271;27;45471;-81
2022/06/06 08:04:34;;;;;;;;;2.00;2.00;;;;;;;;5096498;27;45555;-82
2022/06/06 08:10:19;;;;;;;;;1.00;1.00;;;;;;;;5132119;27;45514;-81
2022/06/06 08:12:59;;;;;;;;;0.00;0.00;;;;;;;;5111413;27;45215;-80
2022/06/06 08:15:33;;;;;;;;;3.33;0.67;;;;;;;;5098072;27;45532;-81
2022/06/06 08:17:58;;;;;;;;;2.00;0.50;;;;;;;;5100423;27;45463;-81
2022/06/06 08:20:28;;;;;;;;;1.00;1.00;;;;;;;;5106205;27;45464;-76
2022/06/06 08:22:57;;;;;;;;;1.00;1.00;;;;;;;;5104905;27;45218;-78
2022/06/06 08:25:23;;;;;;;;;2.75;1.50;;;;;;;;5101497;27;45452;-80
2022/06/06 08:27:50;;;;;;;;;1.00;1.00;;;;;;;;5102916;27;45427;-82
2022/06/06 08:30:16;;;;;;;;;1.00;1.00;;;;;;;;5108556;27;48562;-82
2022/06/06 08:32:42;;;;;;;;;1.75;1.00;;;;;;;;5111040;27;46118;-81
2022/06/06 08:35:07;;;;;;;;;1.00;1.00;;;;;;;;5115424;27;45418;-79
2022/06/06 08:37:51;;;;;;;;;0.50;0.25;;;;;;;;5111149;27;46530;-82
2022/06/06 08:40:16;;;;;;;;;2.75;1.00;;;;;;;;5115206;27;45368;-81
2022/06/06 08:43:03;;;;;;;;;1.25;1.25;;;;;;;;5110567;27;44827;-83
2022/06/06 08:45:47;;;;;;;;;1.00;1.00;;;;;;;;5109060;27;45380;-84
2022/06/06 08:48:17;;;;;;;;;0.50;0.50;;;;;;;;5106369;27;45460;-80
2022/06/06 08:50:57;;;;;;;;;0.00;0.00;;;;;;;;5112831;27;45463;-81
2022/06/06 08:53:48;;;;;;;;;0.75;0.75;;;;;;;;5109415;27;45385;-80
2022/06/06 08:56:22;;;;;;;;;3.00;2.00;;;;;;;;5110696;27;45321;-78
2022/06/06 08:58:53;;;;;;;;;0.25;0.25;;;;;;;;5114488;27;45377;-79
2022/06/06 09:01:36;;;;;;;;;0.50;0.50;;;;;;;;5107086;27;45456;-79
2022/06/06 09:04:21;;;;;;;;;0.00;0.00;;;;;;;;5098786;27;45358;-79
2022/06/06 09:07:03;;;;;;;;;0.00;0.00;;;;;;;;5134109;27;45516;-79
2022/06/06 09:09:31;;;;;;;;;0.00;0.00;;;;;;;;5099754;27;45351;-78
2022/06/06 09:12:10;;;;;;;;;2.00;0.25;;;;;;;;5101799;27;46359;-79
2022/06/06 09:14:41;;;;;;;;;0.50;0.50;;;;;;;;5115608;27;45187;-77
2022/06/06 09:17:22;;;;;;;;;0.00;0.00;;;;;;;;5114156;27;45311;-77
2022/06/06 09:20:01;;;;;;;;;1.00;0.25;;;;;;;;5107090;27;45705;-78
2022/06/06 09:22:35;;;;;;;;;0.75;0.75;;;;;;;;5097410;27;45109;-76
2022/06/06 09:25:20;;;;;;;;;0.75;0.75;;;;;;;;5101061;27;45389;-77
2022/06/06 09:28:08;;;;;;;;;1.75;0.75;;;;;;;;5091930;27;45348;-78
2022/06/06 09:31:01;;;;;;;;;0.00;0.00;;;;;;;;5098779;27;45353;-77
2022/06/06 09:33:45;;;;;;;;;1.25;0.00;;;;;;;;5092290;27;47322;-77
2022/06/06 09:36:29;;;;;;;;;1.00;1.00;;;;;;;;5083908;27;45450;-78
2022/06/06 09:39:13;;;;;;;;;0.00;0.00;;;;;;;;5087506;27;45478;-76
2022/06/06 09:41:39;;;;;;;;;1.75;0.00;;;;;;;;5087205;27;45484;-79
2022/06/06 09:44:04;;;;;;;;;0.00;0.00;;;;;;;;5093919;27;45890;-78
2022/06/06 09:46:40;;;;;;;;;0.00;0.00;;;;;;;;5097526;27;45340;-78
2022/06/06 09:49:33;;;;;;;;;0.00;0.00;;;;;;;;5084156;27;45425;-79
2022/06/06 09:52:20;;;;;;;;;0.00;0.00;;;;;;;;5094666;27;45436;-78
2022/06/06 10:01:00;;;;;;;;;0.00;0.00;;;;;;;;5096900;27;45306;-75
2022/06/06 10:03:43;;;;;;;;;0.25;0.00;;;;;;;;5093881;27;45229;-75
2022/06/06 10:06:27;;;;;;;;;0.50;0.50;;;;;;;;5092992;27;45394;-74
2022/06/06 10:09:13;;;;;;;;;0.00;0.00;;;;;;;;5093849;27;45369;-77
2022/06/06 10:11:38;;;;;;;;;0.00;0.00;;;;;;;;5096700;27;45635;-74
2022/06/06 10:14:18;;;;;;;;;0.00;0.00;;;;;;;;5098986;27;45527;-75
2022/06/06 10:17:02;;;;;;;;;0.00;0.00;;;;;;;;5094976;27;46157;-75
2022/06/06 10:19:40;;;;;;;;;0.00;0.00;;;;;;;;5097917;27;45672;-74
2022/06/06 10:22:05;;;;;;;;;0.00;0.00;;;;;;;;5090682;27;45256;-75
2022/06/06 10:24:49;;;;;;;;;0.00;0.00;;;;;;;;5099792;27;45350;-76
2022/06/06 10:27:17;;;;;;;;;1.25;0.25;;;;;;;;5090174;27;48150;-76
2022/06/06 10:30:11;;;;;;;;;0.00;0.00;;;;;;;;5087468;27;45372;-78
2022/06/06 10:32:49;;;;;;;;;0.00;0.00;;;;;;;;5090654;27;45507;-76
2022/06/06 10:35:14;;;;;;;;;2.50;1.00;;;;;;;;5128524;27;46967;-75
2022/06/06 10:37:51;;;;;;;;;2.00;1.00;;;;;;;;5094017;27;45319;-74
2022/06/06 10:40:35;;;;;;;;;0.25;0.25;;;;;;;;5099919;27;45441;-76
2022/06/06 10:43:03;;;;;;;;;1.00;1.00;;;;;;;;5095880;27;45393;-75
2022/06/06 10:45:28;;;;;;;;;0.00;0.00;;;;;;;;5098918;27;46174;-76
2022/06/06 10:48:12;;;;;;;;;0.00;0.00;;;;;;;;5090111;27;47211;-75
2022/06/06 10:53:51;;;;;;;;;0.00;0.00;;;;;;;;5086231;27;45404;-75
2022/06/06 10:56:37;;;;;;;;;5.25;4.00;;;;;;;;5088104;27;46130;-76
2022/06/06 10:59:03;;;;;;;;;0.00;0.00;;;;;;;;5075008;27;45447;-75
2022/06/06 11:01:28;;;;;;;;;20.67;19.00;;;;;;;;5088561;27;45649;-75
2022/06/06 11:04:12;;;;;;;;;4.00;4.00;;;;;;;;5085369;27;45694;-75
2022/06/06 11:06:47;;;;;;;;;4.00;3.75;;;;;;;;5095480;27;45496;-76
2022/06/06 11:09:30;;;;;;;;;1.50;1.50;;;;;;;;5090274;27;46203;-77
2022/06/06 11:11:58;;;;;;;;;2.00;1.75;;;;;;;;5082537;27;45318;-76
2022/06/06 11:14:31;;;;;;;;;0.00;0.00;;;;;;;;5096644;27;45365;-75
2022/06/06 11:16:59;;;;;;;;;2.25;2.25;;;;;;;;5092547;27;46248;-74
2022/06/06 11:19:39;;;;;;;;;6.75;6.75;;;;;;;;5090717;27;45750;-74
2022/06/06 11:22:07;;;;;;;;;9.25;7.75;;;;;;;;5095081;27;45520;-74
2022/06/06 11:24:39;;;;;;;;;2.75;2.75;;;;;;;;5093059;27;45287;-74
2022/06/06 11:27:18;;;;;;;;;9.25;8.25;;;;;;;;5096569;27;45666;-74
2022/06/06 11:29:43;;;;;;;;;3.00;1.00;;;;;;;;5099080;27;47117;-74
2022/06/06 11:32:31;;;;;;;;;4.50;3.00;;;;;;;;5087808;27;45428;-75
2022/06/06 11:35:07;;;;;;;;;4.50;3.75;;;;;;;;5089063;27;45255;-75
2022/06/06 11:37:51;;;;;;;;;0.50;0.00;;;;;;;;5090367;27;45559;-74
2022/06/06 11:40:36;;;;;;;;;6.50;6.50;;;;;;;;5092079;27;46498;-74
2022/06/06 11:43:20;;;;;;;;;5.50;5.50;;;;;;;;5091595;27;45353;-74
2022/06/06 11:45:54;;;;;;;;;5.00;5.00;;;;;;;;5092907;27;45459;-76
2022/06/06 11:48:35;;;;;;;;;7.75;7.75;;;;;;;;5092831;27;46432;-74
2022/06/06 11:51:27;;;;;;;;;3.00;3.00;;;;;;;;5086286;27;45530;-74
2022/06/06 11:54:04;;;;;;;;;1.75;0.75;;;;;;;;5096189;27;45386;-74
2022/06/06 11:56:33;;;;;;;;;0.00;0.00;;;;;;;;5095007;27;45479;-74
2022/06/06 11:59:09;;;;;;;;;1.50;0.50;;;;;;;;5095188;27;45448;-75
2022/06/06 12:01:53;;;;;;;;;0.75;0.75;;;;;;;;5095512;27;45548;-74
2022/06/06 12:04:21;;;;;;;;;0.40;0.40;;;;;;;;5087759;27;45398;-73
2022/06/06 12:07:02;;;;;;;;;0.00;0.00;;;;;;;;5093822;27;45405;-74
2022/06/06 12:09:30;;;;;;;;;0.00;0.00;;;;;;;;5092222;27;45663;-74
2022/06/06 12:12:01;;;;;;;;;1.00;1.00;;;;;;;;5080108;27;45581;-74
2022/06/06 12:14:44;;;;;;;;;4.00;3.50;;;;;;;;5082761;27;45530;-74
2022/06/06 12:17:37;;;;;;;;;4.00;3.00;;;;;;;;5091774;27;45445;-74
2022/06/06 12:20:26;;;;;;;;;1.00;1.00;;;;;;;;5084378;27;46193;-75
2022/06/06 12:22:59;;;;;;;;;2.00;2.00;;;;;;;;5081351;27;46469;-76
2022/06/06 12:25:53;;;;;;;;;1.20;1.20;;;;;;;;5090105;27;45169;-74
2022/06/06 12:28:22;;;;;;;;;1.00;1.00;;;;;;;;5082398;27;45245;-75
2022/06/06 12:31:02;;;;;;;;;0.25;0.25;;;;;;;;5095367;27;45402;-75
2022/06/06 12:33:33;;;;;;;;;0.00;0.00;;;;;;;;5088938;27;48659;-75
2022/06/06 12:36:02;;;;;;;;;2.00;0.00;;;;;;;;5095500;27;45560;-75
2022/06/06 12:38:27;;;;;;;;;1.40;0.80;;;;;;;;5121934;27;45331;-75
2022/06/06 12:41:12;;;;;;;;;1.75;1.75;;;;;;;;5096139;27;45295;-75
2022/06/06 12:43:58;;;;;;;;;0.00;0.00;;;;;;;;5087313;27;46324;-75
2022/06/06 12:46:43;;;;;;;;;0.20;0.00;;;;;;;;5096312;27;45281;-70
2022/06/06 12:49:08;;;;;;;;;0.00;0.00;;;;;;;;5091883;27;45319;-75
2022/06/06 12:51:33;;;;;;;;;2.00;0.00;;;;;;;;5089477;27;45318;-75
2022/06/06 12:54:08;;;;;;;;;0.00;0.00;;;;;;;;5094413;27;46304;-75
2022/06/06 12:56:39;;;;;;;;;0.00;0.00;;;;;;;;5093603;27;45418;-75
2022/06/06 12:59:23;;;;;;;;;1.00;0.00;;;;;;;;5099087;27;45366;-76
2022/06/06 13:01:57;;;;;;;;;0.40;0.00;;;;;;;;5097444;27;45547;-75
2022/06/06 13:04:34;;;;;;;;;0.00;0.00;;;;;;;;5098281;27;45472;-73
2022/06/06 13:07:15;;;;;;;;;0.00;0.00;;;;;;;;5094308;27;45429;-75
2022/06/06 13:09:43;;;;;;;;;0.00;0.00;;;;;;;;5096718;27;45287;-75
2022/06/06 13:12:26;;;;;;;;;0.00;0.00;;;;;;;;5094090;27;45125;-76
2022/06/06 13:14:58;;;;;;;;;0.80;0.00;;;;;;;;5132061;27;48375;-77
2022/06/06 13:17:23;;;;;;;;;0.80;0.80;;;;;;;;5096598;27;48128;-77
2022/06/06 13:19:57;;;;;;;;;0.00;0.00;;;;;;;;5099158;27;45513;-75
2022/06/06 13:22:41;;;;;;;;;0.00;0.00;;;;;;;;5094137;27;45466;-76
2022/06/06 13:25:06;;;;;;;;;0.00;0.00;;;;;;;;5100363;27;45656;-76
2022/06/06 13:27:51;;;;;;;;;0.00;0.00;;;;;;;;5098357;27;45292;-76
2022/06/06 13:30:21;;;;;;;;;0.00;0.00;;;;;;;;5100450;27;45411;-77
2022/06/06 13:32:53;;;;;;;;;0.00;0.00;;;;;;;;5128730;27;47087;-76
2022/06/06 13:35:36;;;;;;;;;0.20;0.20;;;;;;;;5100495;27;46330;-75
2022/06/06 13:38:11;;;;;;;;;1.00;0.00;;;;;;;;5128568;27;45634;-77
2022/06/06 13:40:41;;;;;;;;;0.00;0.00;;;;;;;;5099099;27;45510;-75
2022/06/06 13:43:19;;;;;;;;;0.40;0.40;;;;;;;;5095775;27;45484;-77
2022/06/06 13:45:49;;;;;;;;;0.00;0.00;;;;;;;;5099837;27;47127;-77
2022/06/06 13:48:17;;;;;;;;;0.00;0.00;;;;;;;;5096378;27;45507;-76
2022/06/06 13:51:01;;;;;;;;;0.00;0.00;;;;;;;;5100630;27;45610;-76
2022/06/06 13:53:38;;;;;;;;;0.00;0.00;;;;;;;;5095001;27;45452;-76
2022/06/06 13:56:08;;;;;;;;;0.00;0.00;;;;;;;;5092432;27;47353;-77
2022/06/06 13:58:34;;;;;;;;;0.20;0.20;;;;;;;;5098743;27;45561;-74
2022/06/06 14:01:05;;;;;;;;;0.00;0.00;;;;;;;;5097823;27;45529;-76
2022/06/06 14:03:45;;;;;;;;;0.00;0.00;;;;;;;;5096273;27;45516;-77
2022/06/06 14:06:17;;;;;;;;;0.00;0.00;;;;;;;;5097963;27;47296;-76
2022/06/06 14:09:01;;;;;;;;;0.00;0.00;;;;;;;;5096799;27;45509;-77
2022/06/06 14:11:42;;;;;;;;;0.00;0.00;;;;;;;;5098020;27;45390;-76
2022/06/06 14:14:08;;;;;;;;;1.50;1.50;;;;;;;;5103295;27;45436;-76
2022/06/06 14:16:47;;;;;;;;;0.00;0.00;;;;;;;;5095763;27;45279;-74
2022/06/06 14:19:12;;;;;;;;;0.00;0.00;;;;;;;;5097687;27;45549;-77
2022/06/06 14:21:39;;;;;;;;;0.00;0.00;;;;;;;;5096917;27;45529;-76
2022/06/06 14:24:09;;;;;;;;;0.00;0.00;;;;;;;;5099124;27;46686;-77
2022/06/06 14:26:34;;;;;;;;;0.20;0.20;;;;;;;;5096132;27;45517;-76
2022/06/06 14:29:19;;;;;;;;;0.00;0.00;;;;;;;;5092514;27;45284;-76
2022/06/06 14:31:55;;;;;;;;;0.00;0.00;;;;;;;;5084034;27;45483;-73
2022/06/06 14:34:30;;;;;;;;;0.00;0.00;;;;;;;;5094376;27;47321;-74
2022/06/06 14:37:03;;;;;;;;;0.20;0.00;;;;;;;;5095753;27;45260;-74
2022/06/06 14:39:28;;;;;;;;;0.00;0.00;;;;;;;;5096385;27;45594;-75
2022/06/06 14:41:54;;;;;;;;;0.00;0.00;;;;;;;;5095688;27;45354;-75
2022/06/06 14:44:48;;;;;;;;;0.50;0.00;;;;;;;;5095478;27;45476;-74
2022/06/06 14:47:19;;;;;;;;;0.00;0.00;;;;;;;;5085754;27;45544;-75
2022/06/06 14:50:45;;;;;;;;;0.00;0.00;;;;;;;;5099654;27;45425;-76
2022/06/06 14:52:34;;;;;;;;;0.00;0.00;;;;;;;;5094256;27;45425;-75
2022/06/06 14:55:01;;;;;;;;;0.00;0.00;;;;;;;;5098117;27;45501;-75
2022/06/06 14:57:28;;;;;;;;;0.00;0.00;;;;;;;;5091944;27;46177;-76
2022/06/06 14:59:54;;;;;;;;;0.00;0.00;;;;;;;;5098821;27;45310;-76
2022/06/06 15:02:24;;;;;;;;;0.00;0.00;;;;;;;;5094446;27;45835;-76
2022/06/06 15:05:09;;;;;;;;;1.75;0.25;;;;;;;;5094662;27;45328;-76
2022/06/06 15:07:44;;;;;;;;;0.00;0.00;;;;;;;;5089127;27;45548;-74
2022/06/06 15:10:17;;;;;;;;;0.00;0.00;;;;;;;;5097014;27;45531;-74
2022/06/06 15:12:43;;;;;;;;;0.00;0.00;;;;;;;;5095840;27;45468;-76
2022/06/06 15:15:10;;;;;;;;;0.00;0.00;;;;;;;;5097141;27;45544;-74
2022/06/06 15:17:38;;;;;;;;;0.00;0.00;;;;;;;;5094352;27;47333;-73
2022/06/06 15:20:06;;;;;;;;;0.80;0.80;;;;;;;;5097333;27;45236;-75
2022/06/06 15:22:38;;;;;;;;;0.75;0.00;;;;;;;;5094783;27;45665;-74
2022/06/06 15:25:04;;;;;;;;;0.00;0.00;;;;;;;;5095435;27;45758;-73
2022/06/06 15:27:44;;;;;;;;;0.75;0.75;;;;;;;;5096252;27;45476;-73
2022/06/06 15:30:14;;;;;;;;;0.00;0.00;;;;;;;;5096100;27;45506;-75
2022/06/06 15:32:47;;;;;;;;;0.75;0.75;;;;;;;;5094551;27;45416;-73
2022/06/06 15:35:32;;;;;;;;;0.00;0.00;;;;;;;;5097816;27;46411;-74
2022/06/06 15:38:10;;;;;;;;;0.00;0.00;;;;;;;;5089462;27;45750;-73
2022/06/06 15:40:37;;;;;;;;;0.00;0.00;;;;;;;;5095555;27;46452;-74